<?xml version="1.0" encoding="UTF-8" standalone="no" ?>
<gpx xmlns="http://www.topografix.com/GPX/1/1" xmlns:xsi="http://www.w3.org/2001/XMLSchema-instance" xsi:schemaLocation="http://www.topografix.com/GPX/1/1 http://www.topografix.com/GPX/1/1/gpx.xsd" version="1.1" creator="VisuGPX - https://www.visugpx.com">
  <metadata>
    <name>Parcours Antique Via Bolena de Lugdunum / Lyon à Burdigalia / Bordeaux - De Saint-Paulien à Alleyras</name>
    <desc><![CDATA[La voie romaine qui, partant de Lyon, capitale des Trois Gaules, se dirige vers le sud-ouest et les Pyrénées, la Narbonnaise occidentale et l'Aquitaine est l'une des rares touchant le Massif central à être bien attestée par un document antique. Presque rectiligne, on gagnera de nombreuses heures pour descendre vers les Pyrénées Atlantiques et le sud ouest par rapport au "chemin commercial" surpeuplé de la via Podiensis (vers Compostelle). Le chemin est magnifique à parcourir à pied ou à vélo. Toutes infos sur [url]http://voie-bolene.info[/url]
Il s'agit ici de la partie Saint-Paulien (Haute Loire) (Auvergne Rhône Alpes) - Alleyras (Haute-Loire) (Auvergne Rhône Alpes) (Haut Allier) soit Ruessium - Condate]]></desc>
  </metadata>
  <trk>
    <name><![CDATA[Antique Voie Bolène - Via Bolena - Section Allier Gourlong Saint-Paulien - historique]]></name>
    <trkseg>
      <trkpt lat="44.92117" lon="3.67705">
        <ele>675</ele>
        <time>2010-01-01T00:00:00Z</time>
      </trkpt>
      <trkpt lat="44.92116" lon="3.67745">
        <ele>678</ele>
        <time>2010-01-01T00:00:38Z</time>
      </trkpt>
      <trkpt lat="44.92152" lon="3.67841">
        <ele>710</ele>
        <time>2010-01-01T00:02:20Z</time>
      </trkpt>
      <trkpt lat="44.92229" lon="3.67959">
        <ele>722</ele>
        <time>2010-01-01T00:04:51Z</time>
      </trkpt>
      <trkpt lat="44.92253" lon="3.68154">
        <ele>756</ele>
        <time>2010-01-01T00:07:58Z</time>
      </trkpt>
      <trkpt lat="44.92271" lon="3.68298">
        <ele>771</ele>
        <time>2010-01-01T00:10:17Z</time>
      </trkpt>
      <trkpt lat="44.92243" lon="3.6837">
        <ele>777</ele>
        <time>2010-01-01T00:11:34Z</time>
      </trkpt>
      <trkpt lat="44.92241" lon="3.68428">
        <ele>781</ele>
        <time>2010-01-01T00:12:29Z</time>
      </trkpt>
      <trkpt lat="44.92341" lon="3.68471">
        <ele>811</ele>
        <time>2010-01-01T00:14:48Z</time>
      </trkpt>
      <trkpt lat="44.92448" lon="3.68523">
        <ele>828</ele>
        <time>2010-01-01T00:17:19Z</time>
      </trkpt>
      <trkpt lat="44.92539" lon="3.68591">
        <ele>834</ele>
        <time>2010-01-01T00:19:37Z</time>
      </trkpt>
      <trkpt lat="44.92581" lon="3.68673">
        <ele>842</ele>
        <time>2010-01-01T00:21:12Z</time>
      </trkpt>
      <trkpt lat="44.92611" lon="3.68709">
        <ele>847</ele>
        <time>2010-01-01T00:22:05Z</time>
      </trkpt>
      <trkpt lat="44.92648" lon="3.68707">
        <ele>850</ele>
        <time>2010-01-01T00:22:54Z</time>
      </trkpt>
      <trkpt lat="44.92677" lon="3.68688">
        <ele>849</ele>
        <time>2010-01-01T00:23:36Z</time>
      </trkpt>
      <trkpt lat="44.92694" lon="3.68684">
        <ele>849</ele>
        <time>2010-01-01T00:24:01Z</time>
      </trkpt>
      <trkpt lat="44.92712" lon="3.68697">
        <ele>850</ele>
        <time>2010-01-01T00:24:26Z</time>
      </trkpt>
      <trkpt lat="44.92708" lon="3.68716">
        <ele>857</ele>
        <time>2010-01-01T00:24:45Z</time>
      </trkpt>
      <trkpt lat="44.92692" lon="3.68731">
        <ele>863</ele>
        <time>2010-01-01T00:25:11Z</time>
      </trkpt>
      <trkpt lat="44.92669" lon="3.68774">
        <ele>875</ele>
        <time>2010-01-01T00:26:02Z</time>
      </trkpt>
      <trkpt lat="44.92632" lon="3.68808">
        <ele>886</ele>
        <time>2010-01-01T00:27:00Z</time>
      </trkpt>
      <trkpt lat="44.92593" lon="3.68821">
        <ele>891</ele>
        <time>2010-01-01T00:27:54Z</time>
      </trkpt>
      <trkpt lat="44.92546" lon="3.68825">
        <ele>896</ele>
        <time>2010-01-01T00:28:57Z</time>
      </trkpt>
      <trkpt lat="44.92508" lon="3.68793">
        <ele>899</ele>
        <time>2010-01-01T00:29:56Z</time>
      </trkpt>
      <trkpt lat="44.92511" lon="3.6883">
        <ele>904</ele>
        <time>2010-01-01T00:30:31Z</time>
      </trkpt>
      <trkpt lat="44.92522" lon="3.68855">
        <ele>908</ele>
        <time>2010-01-01T00:30:59Z</time>
      </trkpt>
      <trkpt lat="44.92534" lon="3.68877">
        <ele>911</ele>
        <time>2010-01-01T00:31:25Z</time>
      </trkpt>
      <trkpt lat="44.92548" lon="3.6888">
        <ele>911</ele>
        <time>2010-01-01T00:31:45Z</time>
      </trkpt>
      <trkpt lat="44.92554" lon="3.68889">
        <ele>914</ele>
        <time>2010-01-01T00:31:56Z</time>
      </trkpt>
      <trkpt lat="44.92546" lon="3.68897">
        <ele>916</ele>
        <time>2010-01-01T00:32:09Z</time>
      </trkpt>
      <trkpt lat="44.92526" lon="3.68905">
        <ele>918</ele>
        <time>2010-01-01T00:32:37Z</time>
      </trkpt>
      <trkpt lat="44.92503" lon="3.68913">
        <ele>926</ele>
        <time>2010-01-01T00:33:09Z</time>
      </trkpt>
      <trkpt lat="44.92476" lon="3.68928">
        <ele>930</ele>
        <time>2010-01-01T00:33:48Z</time>
      </trkpt>
      <trkpt lat="44.92471" lon="3.68943">
        <ele>931</ele>
        <time>2010-01-01T00:34:03Z</time>
      </trkpt>
      <trkpt lat="44.92479" lon="3.68958">
        <ele>933</ele>
        <time>2010-01-01T00:34:21Z</time>
      </trkpt>
      <trkpt lat="44.92503" lon="3.68961">
        <ele>937</ele>
        <time>2010-01-01T00:34:54Z</time>
      </trkpt>
      <trkpt lat="44.92521" lon="3.68958">
        <ele>937</ele>
        <time>2010-01-01T00:35:17Z</time>
      </trkpt>
      <trkpt lat="44.92553" lon="3.68978">
        <ele>944</ele>
        <time>2010-01-01T00:36:05Z</time>
      </trkpt>
      <trkpt lat="44.92578" lon="3.68985">
        <ele>948</ele>
        <time>2010-01-01T00:36:38Z</time>
      </trkpt>
      <trkpt lat="44.92604" lon="3.68997">
        <ele>956</ele>
        <time>2010-01-01T00:37:14Z</time>
      </trkpt>
      <trkpt lat="44.92628" lon="3.6901">
        <ele>960</ele>
        <time>2010-01-01T00:37:49Z</time>
      </trkpt>
      <trkpt lat="44.92651" lon="3.69018">
        <ele>962</ele>
        <time>2010-01-01T00:38:20Z</time>
      </trkpt>
      <trkpt lat="44.92678" lon="3.69018">
        <ele>962</ele>
        <time>2010-01-01T00:38:57Z</time>
      </trkpt>
      <trkpt lat="44.92688" lon="3.69032">
        <ele>966</ele>
        <time>2010-01-01T00:39:15Z</time>
      </trkpt>
      <trkpt lat="44.92671" lon="3.69046">
        <ele>968</ele>
        <time>2010-01-01T00:39:41Z</time>
      </trkpt>
      <trkpt lat="44.92665" lon="3.69064">
        <ele>970</ele>
        <time>2010-01-01T00:40:01Z</time>
      </trkpt>
      <trkpt lat="44.92683" lon="3.6907">
        <ele>972</ele>
        <time>2010-01-01T00:40:25Z</time>
      </trkpt>
      <trkpt lat="44.92707" lon="3.69079">
        <ele>976</ele>
        <time>2010-01-01T00:40:58Z</time>
      </trkpt>
      <trkpt lat="44.92719" lon="3.69083">
        <ele>979</ele>
        <time>2010-01-01T00:41:14Z</time>
      </trkpt>
      <trkpt lat="44.92728" lon="3.691">
        <ele>981</ele>
        <time>2010-01-01T00:41:35Z</time>
      </trkpt>
      <trkpt lat="44.9274" lon="3.69126">
        <ele>983</ele>
        <time>2010-01-01T00:42:04Z</time>
      </trkpt>
      <trkpt lat="44.92766" lon="3.69164">
        <ele>991</ele>
        <time>2010-01-01T00:42:54Z</time>
      </trkpt>
      <trkpt lat="44.92792" lon="3.69222">
        <ele>999</ele>
        <time>2010-01-01T00:43:59Z</time>
      </trkpt>
      <trkpt lat="44.92819" lon="3.69238">
        <ele>1007</ele>
        <time>2010-01-01T00:44:38Z</time>
      </trkpt>
      <trkpt lat="44.92842" lon="3.69238">
        <ele>1013</ele>
        <time>2010-01-01T00:45:08Z</time>
      </trkpt>
      <trkpt lat="44.92851" lon="3.69251">
        <ele>1016</ele>
        <time>2010-01-01T00:45:26Z</time>
      </trkpt>
      <trkpt lat="44.92846" lon="3.69269">
        <ele>1016</ele>
        <time>2010-01-01T00:45:44Z</time>
      </trkpt>
      <trkpt lat="44.92835" lon="3.69287">
        <ele>1014</ele>
        <time>2010-01-01T00:46:07Z</time>
      </trkpt>
      <trkpt lat="44.92844" lon="3.69302">
        <ele>1017</ele>
        <time>2010-01-01T00:46:26Z</time>
      </trkpt>
      <trkpt lat="44.92863" lon="3.69308">
        <ele>1023</ele>
        <time>2010-01-01T00:46:53Z</time>
      </trkpt>
      <trkpt lat="44.92908" lon="3.69351">
        <ele>1033</ele>
        <time>2010-01-01T00:48:04Z</time>
      </trkpt>
      <trkpt lat="44.92907" lon="3.69409">
        <ele>1041</ele>
        <time>2010-01-01T00:48:59Z</time>
      </trkpt>
      <trkpt lat="44.9293" lon="3.69454">
        <ele>1053</ele>
        <time>2010-01-01T00:49:52Z</time>
      </trkpt>
      <trkpt lat="44.9295" lon="3.69481">
        <ele>1058</ele>
        <time>2010-01-01T00:50:29Z</time>
      </trkpt>
      <trkpt lat="44.92936" lon="3.69557">
        <ele>1064</ele>
        <time>2010-01-01T00:51:43Z</time>
      </trkpt>
      <trkpt lat="44.92927" lon="3.69613">
        <ele>1065</ele>
        <time>2010-01-01T00:52:37Z</time>
      </trkpt>
      <trkpt lat="44.92929" lon="3.69666">
        <ele>1069</ele>
        <time>2010-01-01T00:53:28Z</time>
      </trkpt>
      <trkpt lat="44.92921" lon="3.69718">
        <ele>1076</ele>
        <time>2010-01-01T00:54:17Z</time>
      </trkpt>
      <trkpt lat="44.9293" lon="3.6975">
        <ele>1079</ele>
        <time>2010-01-01T00:54:50Z</time>
      </trkpt>
      <trkpt lat="44.92952" lon="3.69769">
        <ele>1082</ele>
        <time>2010-01-01T00:55:24Z</time>
      </trkpt>
      <trkpt lat="44.92979" lon="3.69804">
        <ele>1085</ele>
        <time>2010-01-01T00:56:13Z</time>
      </trkpt>
      <trkpt lat="44.93006" lon="3.69849">
        <ele>1091</ele>
        <time>2010-01-01T00:57:09Z</time>
      </trkpt>
      <trkpt lat="44.93047" lon="3.69885">
        <ele>1097</ele>
        <time>2010-01-01T00:58:13Z</time>
      </trkpt>
      <trkpt lat="44.93099" lon="3.69943">
        <ele>1101</ele>
        <time>2010-01-01T00:59:41Z</time>
      </trkpt>
      <trkpt lat="44.93147" lon="3.6998">
        <ele>1101</ele>
        <time>2010-01-01T01:00:55Z</time>
      </trkpt>
      <trkpt lat="44.93198" lon="3.70014">
        <ele>1103</ele>
        <time>2010-01-01T01:02:09Z</time>
      </trkpt>
      <trkpt lat="44.93228" lon="3.70059">
        <ele>1106</ele>
        <time>2010-01-01T01:03:08Z</time>
      </trkpt>
      <trkpt lat="44.93269" lon="3.70121">
        <ele>1116</ele>
        <time>2010-01-01T01:04:28Z</time>
      </trkpt>
      <trkpt lat="44.93283" lon="3.70156">
        <ele>1118</ele>
        <time>2010-01-01T01:05:05Z</time>
      </trkpt>
      <trkpt lat="44.93305" lon="3.70201">
        <ele>1121</ele>
        <time>2010-01-01T01:05:58Z</time>
      </trkpt>
      <trkpt lat="44.9333" lon="3.70237">
        <ele>1122</ele>
        <time>2010-01-01T01:06:45Z</time>
      </trkpt>
      <trkpt lat="44.93353" lon="3.70287">
        <ele>1123</ele>
        <time>2010-01-01T01:07:41Z</time>
      </trkpt>
      <trkpt lat="44.93371" lon="3.70308">
        <ele>1124</ele>
        <time>2010-01-01T01:08:12Z</time>
      </trkpt>
      <trkpt lat="44.93387" lon="3.70323">
        <ele>1125</ele>
        <time>2010-01-01T01:08:39Z</time>
      </trkpt>
      <trkpt lat="44.93406" lon="3.70334">
        <ele>1124</ele>
        <time>2010-01-01T01:09:05Z</time>
      </trkpt>
      <trkpt lat="44.93459" lon="3.70383">
        <ele>1122</ele>
        <time>2010-01-01T01:10:30Z</time>
      </trkpt>
      <trkpt lat="44.93541" lon="3.70454">
        <ele>1116</ele>
        <time>2010-01-01T01:12:38Z</time>
      </trkpt>
      <trkpt lat="44.93574" lon="3.70495">
        <ele>1113</ele>
        <time>2010-01-01T01:13:37Z</time>
      </trkpt>
      <trkpt lat="44.93611" lon="3.70538">
        <ele>1112</ele>
        <time>2010-01-01T01:14:41Z</time>
      </trkpt>
      <trkpt lat="44.93643" lon="3.70585">
        <ele>1114</ele>
        <time>2010-01-01T01:15:42Z</time>
      </trkpt>
      <trkpt lat="44.93661" lon="3.70604">
        <ele>1114</ele>
        <time>2010-01-01T01:16:13Z</time>
      </trkpt>
      <trkpt lat="44.93711" lon="3.70675">
        <ele>1118</ele>
        <time>2010-01-01T01:17:47Z</time>
      </trkpt>
      <trkpt lat="44.9374" lon="3.70699">
        <ele>1117</ele>
        <time>2010-01-01T01:18:32Z</time>
      </trkpt>
      <trkpt lat="44.93795" lon="3.70751">
        <ele>1117</ele>
        <time>2010-01-01T01:20:00Z</time>
      </trkpt>
      <trkpt lat="44.93816" lon="3.70819">
        <ele>1114</ele>
        <time>2010-01-01T01:21:10Z</time>
      </trkpt>
      <trkpt lat="44.93846" lon="3.70819">
        <ele>1115</ele>
        <time>2010-01-01T01:21:51Z</time>
      </trkpt>
      <trkpt lat="44.93883" lon="3.70851">
        <ele>1117</ele>
        <time>2010-01-01T01:22:48Z</time>
      </trkpt>
      <trkpt lat="44.93936" lon="3.70918">
        <ele>1120</ele>
        <time>2010-01-01T01:24:24Z</time>
      </trkpt>
      <trkpt lat="44.94006" lon="3.70926">
        <ele>1123</ele>
        <time>2010-01-01T01:25:57Z</time>
      </trkpt>
      <trkpt lat="44.94089" lon="3.70933">
        <ele>1123</ele>
        <time>2010-01-01T01:27:48Z</time>
      </trkpt>
      <trkpt lat="44.94135" lon="3.71066">
        <ele>1124</ele>
        <time>2010-01-01T01:30:07Z</time>
      </trkpt>
      <trkpt lat="44.94211" lon="3.71186">
        <ele>1123</ele>
        <time>2010-01-01T01:32:39Z</time>
      </trkpt>
      <trkpt lat="44.94279" lon="3.71362">
        <ele>1123</ele>
        <time>2010-01-01T01:35:48Z</time>
      </trkpt>
      <trkpt lat="44.94281" lon="3.71438">
        <ele>1121</ele>
        <time>2010-01-01T01:37:01Z</time>
      </trkpt>
      <trkpt lat="44.94282" lon="3.71477">
        <ele>1121</ele>
        <time>2010-01-01T01:37:38Z</time>
      </trkpt>
      <trkpt lat="44.94286" lon="3.71524">
        <ele>1121</ele>
        <time>2010-01-01T01:38:22Z</time>
      </trkpt>
      <trkpt lat="44.9436" lon="3.71477">
        <ele>1121</ele>
        <time>2010-01-01T01:40:11Z</time>
      </trkpt>
      <trkpt lat="44.94863" lon="3.71636">
        <ele>1141</ele>
        <time>2010-01-01T01:51:38Z</time>
      </trkpt>
      <trkpt lat="44.95092" lon="3.71913">
        <ele>1156</ele>
        <time>2010-01-01T01:58:20Z</time>
      </trkpt>
      <trkpt lat="44.95214" lon="3.72284">
        <ele>1159</ele>
        <time>2010-01-01T02:04:46Z</time>
      </trkpt>
      <trkpt lat="44.95223" lon="3.72344">
        <ele>1161</ele>
        <time>2010-01-01T02:05:44Z</time>
      </trkpt>
      <trkpt lat="44.95278" lon="3.72425">
        <ele>1161</ele>
        <time>2010-01-01T02:07:30Z</time>
      </trkpt>
      <trkpt lat="44.95293" lon="3.7249">
        <ele>1162</ele>
        <time>2010-01-01T02:08:34Z</time>
      </trkpt>
      <trkpt lat="44.9539" lon="3.7249">
        <ele>1165</ele>
        <time>2010-01-01T02:10:44Z</time>
      </trkpt>
      <trkpt lat="44.95496" lon="3.72498">
        <ele>1169</ele>
        <time>2010-01-01T02:13:06Z</time>
      </trkpt>
      <trkpt lat="44.95548" lon="3.72571">
        <ele>1171</ele>
        <time>2010-01-01T02:14:44Z</time>
      </trkpt>
      <trkpt lat="44.95587" lon="3.72571">
        <ele>1172</ele>
        <time>2010-01-01T02:15:36Z</time>
      </trkpt>
      <trkpt lat="44.95645" lon="3.72563">
        <ele>1173</ele>
        <time>2010-01-01T02:16:54Z</time>
      </trkpt>
      <trkpt lat="44.95721" lon="3.72627">
        <ele>1174</ele>
        <time>2010-01-01T02:18:52Z</time>
      </trkpt>
      <trkpt lat="44.95785" lon="3.72674">
        <ele>1177</ele>
        <time>2010-01-01T02:20:28Z</time>
      </trkpt>
      <trkpt lat="44.95842" lon="3.7273">
        <ele>1175</ele>
        <time>2010-01-01T02:22:01Z</time>
      </trkpt>
      <trkpt lat="44.95936" lon="3.72847">
        <ele>1176</ele>
        <time>2010-01-01T02:24:48Z</time>
      </trkpt>
      <trkpt lat="44.96016" lon="3.72846">
        <ele>1174</ele>
        <time>2010-01-01T02:26:34Z</time>
      </trkpt>
      <trkpt lat="44.96064" lon="3.7295">
        <ele>1174</ele>
        <time>2010-01-01T02:28:32Z</time>
      </trkpt>
      <trkpt lat="44.96173" lon="3.73048">
        <ele>1179</ele>
        <time>2010-01-01T02:31:25Z</time>
      </trkpt>
      <trkpt lat="44.96268" lon="3.73112">
        <ele>1184</ele>
        <time>2010-01-01T02:33:44Z</time>
      </trkpt>
      <trkpt lat="44.96404" lon="3.73193">
        <ele>1193</ele>
        <time>2010-01-01T02:37:02Z</time>
      </trkpt>
      <trkpt lat="44.96486" lon="3.73262">
        <ele>1190</ele>
        <time>2010-01-01T02:39:09Z</time>
      </trkpt>
      <trkpt lat="44.96562" lon="3.73339">
        <ele>1190</ele>
        <time>2010-01-01T02:41:14Z</time>
      </trkpt>
      <trkpt lat="44.96638" lon="3.73417">
        <ele>1186</ele>
        <time>2010-01-01T02:43:19Z</time>
      </trkpt>
      <trkpt lat="44.96678" lon="3.7343">
        <ele>1192</ele>
        <time>2010-01-01T02:44:13Z</time>
      </trkpt>
      <trkpt lat="44.96769" lon="3.7361">
        <ele>1198</ele>
        <time>2010-01-01T02:47:42Z</time>
      </trkpt>
      <trkpt lat="44.96841" lon="3.73717">
        <ele>1198</ele>
        <time>2010-01-01T02:50:03Z</time>
      </trkpt>
      <trkpt lat="44.96923" lon="3.73872">
        <ele>1198</ele>
        <time>2010-01-01T02:53:05Z</time>
      </trkpt>
      <trkpt lat="44.97002" lon="3.74039">
        <ele>1197</ele>
        <time>2010-01-01T02:56:15Z</time>
      </trkpt>
      <trkpt lat="44.97004" lon="3.7408">
        <ele>1198</ele>
        <time>2010-01-01T02:56:54Z</time>
      </trkpt>
      <trkpt lat="44.97016" lon="3.74122">
        <ele>1200</ele>
        <time>2010-01-01T02:57:36Z</time>
      </trkpt>
      <trkpt lat="44.97075" lon="3.74116">
        <ele>1199</ele>
        <time>2010-01-01T02:58:56Z</time>
      </trkpt>
      <trkpt lat="44.97139" lon="3.74086">
        <ele>1198</ele>
        <time>2010-01-01T03:00:26Z</time>
      </trkpt>
      <trkpt lat="44.97267" lon="3.74043">
        <ele>1191</ele>
        <time>2010-01-01T03:03:21Z</time>
      </trkpt>
      <trkpt lat="44.97364" lon="3.74005">
        <ele>1185</ele>
        <time>2010-01-01T03:05:35Z</time>
      </trkpt>
      <trkpt lat="44.97509" lon="3.73945">
        <ele>1171</ele>
        <time>2010-01-01T03:08:58Z</time>
      </trkpt>
      <trkpt lat="44.97695" lon="3.73863">
        <ele>1163</ele>
        <time>2010-01-01T03:13:17Z</time>
      </trkpt>
      <trkpt lat="44.97889" lon="3.73799">
        <ele>1155</ele>
        <time>2010-01-01T03:17:42Z</time>
      </trkpt>
      <trkpt lat="44.98041" lon="3.73751">
        <ele>1153</ele>
        <time>2010-01-01T03:21:10Z</time>
      </trkpt>
      <trkpt lat="44.98153" lon="3.73717">
        <ele>1149</ele>
        <time>2010-01-01T03:23:44Z</time>
      </trkpt>
      <trkpt lat="44.98265" lon="3.73721">
        <ele>1146</ele>
        <time>2010-01-01T03:26:13Z</time>
      </trkpt>
      <trkpt lat="44.98393" lon="3.73721">
        <ele>1144</ele>
        <time>2010-01-01T03:29:04Z</time>
      </trkpt>
      <trkpt lat="44.98526" lon="3.73749">
        <ele>1138</ele>
        <time>2010-01-01T03:32:03Z</time>
      </trkpt>
      <trkpt lat="44.9862" lon="3.7379">
        <ele>1133</ele>
        <time>2010-01-01T03:34:15Z</time>
      </trkpt>
      <trkpt lat="44.98727" lon="3.73858">
        <ele>1124</ele>
        <time>2010-01-01T03:36:51Z</time>
      </trkpt>
      <trkpt lat="44.98779" lon="3.73879">
        <ele>1126</ele>
        <time>2010-01-01T03:38:03Z</time>
      </trkpt>
      <trkpt lat="44.98806" lon="3.73949">
        <ele>1124</ele>
        <time>2010-01-01T03:39:18Z</time>
      </trkpt>
      <trkpt lat="44.98851" lon="3.7403">
        <ele>1121</ele>
        <time>2010-01-01T03:40:56Z</time>
      </trkpt>
      <trkpt lat="44.98915" lon="3.74116">
        <ele>1119</ele>
        <time>2010-01-01T03:42:54Z</time>
      </trkpt>
      <trkpt lat="44.98988" lon="3.74206">
        <ele>1116</ele>
        <time>2010-01-01T03:45:03Z</time>
      </trkpt>
      <trkpt lat="44.99091" lon="3.74262">
        <ele>1111</ele>
        <time>2010-01-01T03:47:30Z</time>
      </trkpt>
      <trkpt lat="44.99525" lon="3.74886">
        <ele>1097</ele>
        <time>2010-01-01T04:01:16Z</time>
      </trkpt>
      <trkpt lat="44.99881" lon="3.75212">
        <ele>1086</ele>
        <time>2010-01-01T04:10:42Z</time>
      </trkpt>
      <trkpt lat="45.01184" lon="3.75583">
        <ele>1024</ele>
        <time>2010-01-01T04:40:15Z</time>
      </trkpt>
      <trkpt lat="45.01351" lon="3.75623">
        <ele>1015</ele>
        <time>2010-01-01T04:44:02Z</time>
      </trkpt>
      <trkpt lat="45.01554" lon="3.75641">
        <ele>1004</ele>
        <time>2010-01-01T04:48:33Z</time>
      </trkpt>
      <trkpt lat="45.01688" lon="3.75652">
        <ele>996</ele>
        <time>2010-01-01T04:51:32Z</time>
      </trkpt>
      <trkpt lat="45.01705" lon="3.75657">
        <ele>996</ele>
        <time>2010-01-01T04:51:56Z</time>
      </trkpt>
      <trkpt lat="45.01739" lon="3.75661">
        <ele>995</ele>
        <time>2010-01-01T04:52:41Z</time>
      </trkpt>
      <trkpt lat="45.01771" lon="3.75648">
        <ele>993</ele>
        <time>2010-01-01T04:53:26Z</time>
      </trkpt>
      <trkpt lat="45.01863" lon="3.75727">
        <ele>989</ele>
        <time>2010-01-01T04:55:49Z</time>
      </trkpt>
      <trkpt lat="45.01972" lon="3.75826">
        <ele>990</ele>
        <time>2010-01-01T04:58:42Z</time>
      </trkpt>
      <trkpt lat="45.02124" lon="3.75877">
        <ele>990</ele>
        <time>2010-01-01T05:02:11Z</time>
      </trkpt>
      <trkpt lat="45.02279" lon="3.75903">
        <ele>989</ele>
        <time>2010-01-01T05:05:38Z</time>
      </trkpt>
      <trkpt lat="45.0244" lon="3.7592">
        <ele>987</ele>
        <time>2010-01-01T05:09:14Z</time>
      </trkpt>
      <trkpt lat="45.02561" lon="3.75946">
        <ele>983</ele>
        <time>2010-01-01T05:11:57Z</time>
      </trkpt>
      <trkpt lat="45.02658" lon="3.75924">
        <ele>974</ele>
        <time>2010-01-01T05:14:08Z</time>
      </trkpt>
      <trkpt lat="45.02689" lon="3.75933">
        <ele>971</ele>
        <time>2010-01-01T05:14:50Z</time>
      </trkpt>
      <trkpt lat="45.02828" lon="3.76014">
        <ele>965</ele>
        <time>2010-01-01T05:18:11Z</time>
      </trkpt>
      <trkpt lat="45.0292" lon="3.7606">
        <ele>963</ele>
        <time>2010-01-01T05:20:21Z</time>
      </trkpt>
      <trkpt lat="45.0304" lon="3.7613">
        <ele>962</ele>
        <time>2010-01-01T05:23:15Z</time>
      </trkpt>
      <trkpt lat="45.03177" lon="3.76117">
        <ele>955</ele>
        <time>2010-01-01T05:26:17Z</time>
      </trkpt>
      <trkpt lat="45.03325" lon="3.76109">
        <ele>950</ele>
        <time>2010-01-01T05:29:36Z</time>
      </trkpt>
      <trkpt lat="45.03403" lon="3.76109">
        <ele>945</ele>
        <time>2010-01-01T05:31:20Z</time>
      </trkpt>
      <trkpt lat="45.03574" lon="3.76023">
        <ele>941</ele>
        <time>2010-01-01T05:35:22Z</time>
      </trkpt>
      <trkpt lat="45.03674" lon="3.75928">
        <ele>942</ele>
        <time>2010-01-01T05:38:02Z</time>
      </trkpt>
      <trkpt lat="45.03769" lon="3.75916">
        <ele>940</ele>
        <time>2010-01-01T05:40:09Z</time>
      </trkpt>
      <trkpt lat="45.03896" lon="3.75997">
        <ele>936</ele>
        <time>2010-01-01T05:43:15Z</time>
      </trkpt>
      <trkpt lat="45.03993" lon="3.76109">
        <ele>929</ele>
        <time>2010-01-01T05:46:01Z</time>
      </trkpt>
      <trkpt lat="45.04071" lon="3.76199">
        <ele>923</ele>
        <time>2010-01-01T05:48:17Z</time>
      </trkpt>
      <trkpt lat="45.04147" lon="3.76289">
        <ele>915</ele>
        <time>2010-01-01T05:50:29Z</time>
      </trkpt>
      <trkpt lat="45.04247" lon="3.76323">
        <ele>912</ele>
        <time>2010-01-01T05:52:46Z</time>
      </trkpt>
      <trkpt lat="45.04263" lon="3.76456">
        <ele>910</ele>
        <time>2010-01-01T05:54:53Z</time>
      </trkpt>
      <trkpt lat="45.04299" lon="3.76662">
        <ele>906</ele>
        <time>2010-01-01T05:58:13Z</time>
      </trkpt>
      <trkpt lat="45.04338" lon="3.76869">
        <ele>903</ele>
        <time>2010-01-01T06:01:35Z</time>
      </trkpt>
      <trkpt lat="45.04365" lon="3.76977">
        <ele>898</ele>
        <time>2010-01-01T06:03:23Z</time>
      </trkpt>
      <trkpt lat="45.04499" lon="3.77083">
        <ele>892</ele>
        <time>2010-01-01T06:06:48Z</time>
      </trkpt>
      <trkpt lat="45.04608" lon="3.77164">
        <ele>887</ele>
        <time>2010-01-01T06:09:32Z</time>
      </trkpt>
      <trkpt lat="45.04763" lon="3.77237">
        <ele>878</ele>
        <time>2010-01-01T06:13:10Z</time>
      </trkpt>
      <trkpt lat="45.04942" lon="3.77336">
        <ele>871</ele>
        <time>2010-01-01T06:17:26Z</time>
      </trkpt>
      <trkpt lat="45.05102" lon="3.7743">
        <ele>866</ele>
        <time>2010-01-01T06:21:18Z</time>
      </trkpt>
      <trkpt lat="45.05286" lon="3.77466">
        <ele>862</ele>
        <time>2010-01-01T06:25:26Z</time>
      </trkpt>
      <trkpt lat="45.05454" lon="3.77456">
        <ele>863</ele>
        <time>2010-01-01T06:29:10Z</time>
      </trkpt>
      <trkpt lat="45.05597" lon="3.77503">
        <ele>863</ele>
        <time>2010-01-01T06:32:25Z</time>
      </trkpt>
      <trkpt lat="45.05733" lon="3.77546">
        <ele>859</ele>
        <time>2010-01-01T06:35:32Z</time>
      </trkpt>
      <trkpt lat="45.05997" lon="3.77601">
        <ele>854</ele>
        <time>2010-01-01T06:41:28Z</time>
      </trkpt>
      <trkpt lat="45.06194" lon="3.77615">
        <ele>849</ele>
        <time>2010-01-01T06:45:51Z</time>
      </trkpt>
      <trkpt lat="45.06388" lon="3.77744">
        <ele>851</ele>
        <time>2010-01-01T06:50:37Z</time>
      </trkpt>
      <trkpt lat="45.06536" lon="3.77765">
        <ele>849</ele>
        <time>2010-01-01T06:53:56Z</time>
      </trkpt>
      <trkpt lat="45.06658" lon="3.77804">
        <ele>848</ele>
        <time>2010-01-01T06:56:42Z</time>
      </trkpt>
      <trkpt lat="45.06836" lon="3.77834">
        <ele>838</ele>
        <time>2010-01-01T07:00:42Z</time>
      </trkpt>
      <trkpt lat="45.07026" lon="3.77799">
        <ele>831</ele>
        <time>2010-01-01T07:04:57Z</time>
      </trkpt>
      <trkpt lat="45.07185" lon="3.77752">
        <ele>827</ele>
        <time>2010-01-01T07:08:34Z</time>
      </trkpt>
      <trkpt lat="45.07355" lon="3.77709">
        <ele>828</ele>
        <time>2010-01-01T07:12:24Z</time>
      </trkpt>
      <trkpt lat="45.07521" lon="3.77658">
        <ele>827</ele>
        <time>2010-01-01T07:16:11Z</time>
      </trkpt>
      <trkpt lat="45.07627" lon="3.77632">
        <ele>828</ele>
        <time>2010-01-01T07:18:35Z</time>
      </trkpt>
      <trkpt lat="45.07755" lon="3.77602">
        <ele>826</ele>
        <time>2010-01-01T07:21:27Z</time>
      </trkpt>
      <trkpt lat="45.0787" lon="3.77593">
        <ele>824</ele>
        <time>2010-01-01T07:24:02Z</time>
      </trkpt>
      <trkpt lat="45.08015" lon="3.77563">
        <ele>823</ele>
        <time>2010-01-01T07:27:17Z</time>
      </trkpt>
      <trkpt lat="45.0817" lon="3.77542">
        <ele>821</ele>
        <time>2010-01-01T07:30:44Z</time>
      </trkpt>
      <trkpt lat="45.08324" lon="3.77521">
        <ele>818</ele>
        <time>2010-01-01T07:34:11Z</time>
      </trkpt>
      <trkpt lat="45.08455" lon="3.77499">
        <ele>819</ele>
        <time>2010-01-01T07:37:07Z</time>
      </trkpt>
      <trkpt lat="45.08599" lon="3.77464">
        <ele>817</ele>
        <time>2010-01-01T07:40:22Z</time>
      </trkpt>
      <trkpt lat="45.0877" lon="3.77422">
        <ele>807</ele>
        <time>2010-01-01T07:44:13Z</time>
      </trkpt>
      <trkpt lat="45.08879" lon="3.77379">
        <ele>803</ele>
        <time>2010-01-01T07:46:44Z</time>
      </trkpt>
      <trkpt lat="45.08949" lon="3.77353">
        <ele>799</ele>
        <time>2010-01-01T07:48:20Z</time>
      </trkpt>
      <trkpt lat="45.09039" lon="3.77375">
        <ele>799</ele>
        <time>2010-01-01T07:50:23Z</time>
      </trkpt>
      <trkpt lat="45.09156" lon="3.77453">
        <ele>777</ele>
        <time>2010-01-01T07:53:16Z</time>
      </trkpt>
      <trkpt lat="45.09166" lon="3.7758">
        <ele>770</ele>
        <time>2010-01-01T07:55:16Z</time>
      </trkpt>
      <trkpt lat="45.09221" lon="3.77709">
        <ele>763</ele>
        <time>2010-01-01T07:57:38Z</time>
      </trkpt>
      <trkpt lat="45.09294" lon="3.77731">
        <ele>760</ele>
        <time>2010-01-01T07:59:17Z</time>
      </trkpt>
      <trkpt lat="45.09366" lon="3.7771">
        <ele>763</ele>
        <time>2010-01-01T08:00:56Z</time>
      </trkpt>
      <trkpt lat="45.0938" lon="3.77633">
        <ele>762</ele>
        <time>2010-01-01T08:02:11Z</time>
      </trkpt>
      <trkpt lat="45.09412" lon="3.77654">
        <ele>765</ele>
        <time>2010-01-01T08:02:58Z</time>
      </trkpt>
      <trkpt lat="45.09376" lon="3.77791">
        <ele>772</ele>
        <time>2010-01-01T08:05:16Z</time>
      </trkpt>
      <trkpt lat="45.09309" lon="3.7792">
        <ele>777</ele>
        <time>2010-01-01T08:07:46Z</time>
      </trkpt>
      <trkpt lat="45.0927" lon="3.77997">
        <ele>780</ele>
        <time>2010-01-01T08:09:16Z</time>
      </trkpt>
      <trkpt lat="45.09291" lon="3.7807">
        <ele>789</ele>
        <time>2010-01-01T08:10:30Z</time>
      </trkpt>
      <trkpt lat="45.09382" lon="3.78186">
        <ele>792</ele>
        <time>2010-01-01T08:13:13Z</time>
      </trkpt>
      <trkpt lat="45.09451" lon="3.78272">
        <ele>795</ele>
        <time>2010-01-01T08:15:17Z</time>
      </trkpt>
      <trkpt lat="45.09491" lon="3.78306">
        <ele>795</ele>
        <time>2010-01-01T08:16:18Z</time>
      </trkpt>
      <trkpt lat="45.09545" lon="3.78344">
        <ele>790</ele>
        <time>2010-01-01T08:17:40Z</time>
      </trkpt>
      <trkpt lat="45.0963" lon="3.78396">
        <ele>786</ele>
        <time>2010-01-01T08:19:43Z</time>
      </trkpt>
      <trkpt lat="45.09721" lon="3.78447">
        <ele>784</ele>
        <time>2010-01-01T08:21:53Z</time>
      </trkpt>
      <trkpt lat="45.09812" lon="3.78509">
        <ele>780</ele>
        <time>2010-01-01T08:24:08Z</time>
      </trkpt>
      <trkpt lat="45.09927" lon="3.7855">
        <ele>780</ele>
        <time>2010-01-01T08:26:46Z</time>
      </trkpt>
      <trkpt lat="45.10024" lon="3.78628">
        <ele>785</ele>
        <time>2010-01-01T08:29:15Z</time>
      </trkpt>
      <trkpt lat="45.10139" lon="3.78726">
        <ele>790</ele>
        <time>2010-01-01T08:32:14Z</time>
      </trkpt>
      <trkpt lat="45.10272" lon="3.78847">
        <ele>795</ele>
        <time>2010-01-01T08:35:45Z</time>
      </trkpt>
      <trkpt lat="45.10369" lon="3.78958">
        <ele>804</ele>
        <time>2010-01-01T08:38:32Z</time>
      </trkpt>
      <trkpt lat="45.10551" lon="3.7901">
        <ele>819</ele>
        <time>2010-01-01T08:42:39Z</time>
      </trkpt>
      <trkpt lat="45.10687" lon="3.79027">
        <ele>820</ele>
        <time>2010-01-01T08:45:42Z</time>
      </trkpt>
      <trkpt lat="45.10912" lon="3.7901">
        <ele>817</ele>
        <time>2010-01-01T08:50:41Z</time>
      </trkpt>
      <trkpt lat="45.11096" lon="3.79035">
        <ele>823</ele>
        <time>2010-01-01T08:54:49Z</time>
      </trkpt>
      <trkpt lat="45.11245" lon="3.79078">
        <ele>824</ele>
        <time>2010-01-01T08:58:12Z</time>
      </trkpt>
      <trkpt lat="45.11351" lon="3.79108">
        <ele>822</ele>
        <time>2010-01-01T09:00:35Z</time>
      </trkpt>
      <trkpt lat="45.11478" lon="3.79126">
        <ele>816</ele>
        <time>2010-01-01T09:03:26Z</time>
      </trkpt>
      <trkpt lat="45.11714" lon="3.79302">
        <ele>800</ele>
        <time>2010-01-01T09:09:22Z</time>
      </trkpt>
      <trkpt lat="45.12081" lon="3.79323">
        <ele>768</ele>
        <time>2010-01-01T09:17:31Z</time>
      </trkpt>
      <trkpt lat="45.1219" lon="3.7932">
        <ele>766</ele>
        <time>2010-01-01T09:19:58Z</time>
      </trkpt>
      <trkpt lat="45.12399" lon="3.79402">
        <ele>792</ele>
        <time>2010-01-01T09:24:47Z</time>
      </trkpt>
      <trkpt lat="45.12526" lon="3.79505">
        <ele>796</ele>
        <time>2010-01-01T09:28:02Z</time>
      </trkpt>
      <trkpt lat="45.12619" lon="3.79606">
        <ele>811</ele>
        <time>2010-01-01T09:30:39Z</time>
      </trkpt>
      <trkpt lat="45.12716" lon="3.79739">
        <ele>819</ele>
        <time>2010-01-01T09:33:39Z</time>
      </trkpt>
      <trkpt lat="45.12874" lon="3.79919">
        <ele>820</ele>
        <time>2010-01-01T09:38:09Z</time>
      </trkpt>
      <trkpt lat="45.12931" lon="3.79992">
        <ele>816</ele>
        <time>2010-01-01T09:39:52Z</time>
      </trkpt>
      <trkpt lat="45.1301" lon="3.8007">
        <ele>808</ele>
        <time>2010-01-01T09:42:00Z</time>
      </trkpt>
      <trkpt lat="45.13053" lon="3.80099">
        <ele>802</ele>
        <time>2010-01-01T09:43:04Z</time>
      </trkpt>
      <trkpt lat="45.13073" lon="3.80123">
        <ele>800</ele>
        <time>2010-01-01T09:43:38Z</time>
      </trkpt>
      <trkpt lat="45.13091" lon="3.80168">
        <ele>798</ele>
        <time>2010-01-01T09:44:27Z</time>
      </trkpt>
      <trkpt lat="45.13127" lon="3.80224">
        <ele>797</ele>
        <time>2010-01-01T09:45:38Z</time>
      </trkpt>
      <trkpt lat="45.13189" lon="3.80323">
        <ele>798</ele>
        <time>2010-01-01T09:47:43Z</time>
      </trkpt>
      <trkpt lat="45.13246" lon="3.80482">
        <ele>805</ele>
        <time>2010-01-01T09:50:31Z</time>
      </trkpt>
      <trkpt lat="45.13331" lon="3.80632">
        <ele>807</ele>
        <time>2010-01-01T09:53:32Z</time>
      </trkpt>
      <trkpt lat="45.13473" lon="3.80902">
        <ele>810</ele>
        <time>2010-01-01T09:58:49Z</time>
      </trkpt>
      <trkpt lat="45.13473" lon="3.81115">
        <ele>810</ele>
        <time>2010-01-01T10:02:09Z</time>
      </trkpt>
    </trkseg>
  </trk>
</gpx>